sensor_id;sensor_type;location;lat;lon;timestamp;P1;durP1;ratioP1;P2;durP2;ratioP2
15946;SDS011;8072;52.554;7.966;2022-12-18T00:03:44;42.87;;;16.70;;
15946;SDS011;8072;52.554;7.966;2022-12-18T00:06:11;49.67;;;17.27;;
15946;SDS011;8072;52.554;7.966;2022-12-18T00:08:38;39.17;;;17.53;;
15946;SDS011;8072;52.554;7.966;2022-12-18T00:11:06;44.17;;;16.63;;
15946;SDS011;8072;52.554;7.966;2022-12-18T00:13:33;32.53;;;15.93;;
15946;SDS011;8072;52.554;7.966;2022-12-18T00:16:32;48.63;;;17.70;;
15946;SDS011;8072;52.554;7.966;2022-12-18T00:18:52;42.53;;;16.77;;
15946;SDS011;8072;52.554;7.966;2022-12-18T00:21:19;37.87;;;16.00;;
15946;SDS011;8072;52.554;7.966;2022-12-18T00:23:46;50.70;;;18.10;;
15946;SDS011;8072;52.554;7.966;2022-12-18T00:26:14;41.83;;;17.23;;
15946;SDS011;8072;52.554;7.966;2022-12-18T00:28:45;38.13;;;16.50;;
15946;SDS011;8072;52.554;7.966;2022-12-18T00:31:12;41.37;;;15.20;;
15946;SDS011;8072;52.554;7.966;2022-12-18T00:33:40;34.80;;;17.80;;
15946;SDS011;8072;52.554;7.966;2022-12-18T00:36:06;42.57;;;17.30;;
15946;SDS011;8072;52.554;7.966;2022-12-18T00:38:35;39.63;;;17.77;;
15946;SDS011;8072;52.554;7.966;2022-12-18T00:41:03;41.03;;;16.57;;
15946;SDS011;8072;52.554;7.966;2022-12-18T00:43:29;40.97;;;17.90;;
15946;SDS011;8072;52.554;7.966;2022-12-18T00:45:55;33.07;;;15.70;;
15946;SDS011;8072;52.554;7.966;2022-12-18T00:48:21;43.57;;;16.47;;
15946;SDS011;8072;52.554;7.966;2022-12-18T00:50:47;46.50;;;17.47;;
15946;SDS011;8072;52.554;7.966;2022-12-18T00:53:14;36.13;;;16.47;;
15946;SDS011;8072;52.554;7.966;2022-12-18T00:55:40;40.37;;;16.07;;
15946;SDS011;8072;52.554;7.966;2022-12-18T00:58:07;42.70;;;16.53;;
15946;SDS011;8072;52.554;7.966;2022-12-18T01:00:35;40.23;;;17.43;;
15946;SDS011;8072;52.554;7.966;2022-12-18T01:03:02;43.03;;;16.90;;
15946;SDS011;8072;52.554;7.966;2022-12-18T01:05:28;39.63;;;17.87;;
15946;SDS011;8072;52.554;7.966;2022-12-18T01:07:55;42.13;;;18.43;;
15946;SDS011;8072;52.554;7.966;2022-12-18T01:10:21;40.83;;;17.73;;
15946;SDS011;8072;52.554;7.966;2022-12-18T01:12:47;36.67;;;17.63;;
15946;SDS011;8072;52.554;7.966;2022-12-18T01:15:14;33.63;;;16.23;;
15946;SDS011;8072;52.554;7.966;2022-12-18T01:17:40;38.13;;;17.43;;
15946;SDS011;8072;52.554;7.966;2022-12-18T01:20:07;37.33;;;16.33;;
15946;SDS011;8072;52.554;7.966;2022-12-18T01:22:34;42.63;;;17.67;;
15946;SDS011;8072;52.554;7.966;2022-12-18T01:25:00;39.03;;;17.07;;
15946;SDS011;8072;52.554;7.966;2022-12-18T01:27:26;40.70;;;18.40;;
15946;SDS011;8072;52.554;7.966;2022-12-18T01:29:52;46.40;;;18.00;;
15946;SDS011;8072;52.554;7.966;2022-12-18T01:32:18;40.07;;;17.23;;
15946;SDS011;8072;52.554;7.966;2022-12-18T01:34:45;46.93;;;17.47;;
15946;SDS011;8072;52.554;7.966;2022-12-18T01:37:11;44.37;;;17.90;;
15946;SDS011;8072;52.554;7.966;2022-12-18T01:39:36;33.33;;;15.27;;
15946;SDS011;8072;52.554;7.966;2022-12-18T01:42:02;45.93;;;17.73;;
15946;SDS011;8072;52.554;7.966;2022-12-18T01:50:02;44.07;;;18.47;;
15946;SDS011;8072;52.554;7.966;2022-12-18T01:52:31;40.47;;;16.97;;
15946;SDS011;8072;52.554;7.966;2022-12-18T01:54:58;38.43;;;17.30;;
15946;SDS011;8072;52.554;7.966;2022-12-18T01:57:25;48.73;;;19.80;;
15946;SDS011;8072;52.554;7.966;2022-12-18T01:59:52;42.20;;;17.23;;
15946;SDS011;8072;52.554;7.966;2022-12-18T02:02:21;39.20;;;18.03;;
15946;SDS011;8072;52.554;7.966;2022-12-18T02:04:47;43.73;;;17.30;;
15946;SDS011;8072;52.554;7.966;2022-12-18T02:09:53;42.07;;;16.80;;
15946;SDS011;8072;52.554;7.966;2022-12-18T02:12:35;35.13;;;16.33;;
15946;SDS011;8072;52.554;7.966;2022-12-18T02:15:18;37.50;;;15.87;;
15946;SDS011;8072;52.554;7.966;2022-12-18T02:17:52;48.47;;;17.03;;
15946;SDS011;8072;52.554;7.966;2022-12-18T02:20:34;39.90;;;15.93;;
15946;SDS011;8072;52.554;7.966;2022-12-18T02:26:00;46.50;;;17.47;;
15946;SDS011;8072;52.554;7.966;2022-12-18T02:28:32;40.87;;;17.40;;
15946;SDS011;8072;52.554;7.966;2022-12-18T02:31:02;48.37;;;17.77;;
15946;SDS011;8072;52.554;7.966;2022-12-18T02:33:33;36.60;;;16.10;;
15946;SDS011;8072;52.554;7.966;2022-12-18T02:36:00;39.97;;;16.13;;
15946;SDS011;8072;52.554;7.966;2022-12-18T02:38:28;40.87;;;16.47;;
15946;SDS011;8072;52.554;7.966;2022-12-18T02:40:55;39.47;;;17.93;;
15946;SDS011;8072;52.554;7.966;2022-12-18T02:43:22;41.50;;;17.43;;
15946;SDS011;8072;52.554;7.966;2022-12-18T02:48:23;33.37;;;14.93;;
15946;SDS011;8072;52.554;7.966;2022-12-18T02:54:55;38.23;;;15.47;;
15946;SDS011;8072;52.554;7.966;2022-12-18T02:59:58;34.90;;;14.40;;
15946;SDS011;8072;52.554;7.966;2022-12-18T03:05:22;40.30;;;16.07;;
15946;SDS011;8072;52.554;7.966;2022-12-18T03:08:15;32.80;;;14.10;;
15946;SDS011;8072;52.554;7.966;2022-12-18T03:11:04;26.83;;;14.47;;
15946;SDS011;8072;52.554;7.966;2022-12-18T03:13:37;30.13;;;14.20;;
15946;SDS011;8072;52.554;7.966;2022-12-18T03:16:11;33.47;;;14.63;;
15946;SDS011;8072;52.554;7.966;2022-12-18T03:21:15;29.53;;;13.70;;
15946;SDS011;8072;52.554;7.966;2022-12-18T03:23:47;31.67;;;13.80;;
15946;SDS011;8072;52.554;7.966;2022-12-18T03:26:17;24.20;;;12.60;;
15946;SDS011;8072;52.554;7.966;2022-12-18T03:28:48;26.73;;;12.67;;
15946;SDS011;8072;52.554;7.966;2022-12-18T03:31:17;24.27;;;12.73;;
15946;SDS011;8072;52.554;7.966;2022-12-18T03:33:52;26.00;;;13.47;;
15946;SDS011;8072;52.554;7.966;2022-12-18T03:36:20;32.53;;;15.37;;
15946;SDS011;8072;52.554;7.966;2022-12-18T03:38:46;28.80;;;13.80;;
15946;SDS011;8072;52.554;7.966;2022-12-18T03:41:17;30.53;;;13.67;;
15946;SDS011;8072;52.554;7.966;2022-12-18T03:43:52;30.93;;;13.13;;
15946;SDS011;8072;52.554;7.966;2022-12-18T03:46:38;33.07;;;15.33;;
15946;SDS011;8072;52.554;7.966;2022-12-18T03:54:31;25.97;;;12.93;;
15946;SDS011;8072;52.554;7.966;2022-12-18T03:57:00;26.47;;;13.50;;
15946;SDS011;8072;52.554;7.966;2022-12-18T03:59:31;29.30;;;13.13;;
15946;SDS011;8072;52.554;7.966;2022-12-18T04:01:59;28.13;;;11.70;;
15946;SDS011;8072;52.554;7.966;2022-12-18T04:04:27;28.70;;;13.43;;
15946;SDS011;8072;52.554;7.966;2022-12-18T04:06:53;32.70;;;14.57;;
15946;SDS011;8072;52.554;7.966;2022-12-18T04:09:20;34.07;;;13.87;;
15946;SDS011;8072;52.554;7.966;2022-12-18T04:11:46;27.57;;;13.43;;
15946;SDS011;8072;52.554;7.966;2022-12-18T04:14:13;31.40;;;13.07;;
15946;SDS011;8072;52.554;7.966;2022-12-18T04:16:39;29.03;;;12.30;;
15946;SDS011;8072;52.554;7.966;2022-12-18T04:19:04;25.20;;;12.23;;
15946;SDS011;8072;52.554;7.966;2022-12-18T04:21:31;25.43;;;11.30;;
15946;SDS011;8072;52.554;7.966;2022-12-18T04:23:57;30.33;;;12.70;;
15946;SDS011;8072;52.554;7.966;2022-12-18T04:26:23;23.73;;;11.63;;
15946;SDS011;8072;52.554;7.966;2022-12-18T04:28:49;30.17;;;12.40;;
15946;SDS011;8072;52.554;7.966;2022-12-18T04:31:14;27.00;;;12.27;;
15946;SDS011;8072;52.554;7.966;2022-12-18T04:33:40;20.80;;;10.77;;
15946;SDS011;8072;52.554;7.966;2022-12-18T04:36:06;25.43;;;11.90;;
15946;SDS011;8072;52.554;7.966;2022-12-18T04:38:32;21.77;;;10.07;;
15946;SDS011;8072;52.554;7.966;2022-12-18T04:40:58;21.87;;;11.63;;
15946;SDS011;8072;52.554;7.966;2022-12-18T04:43:26;24.33;;;12.03;;
15946;SDS011;8072;52.554;7.966;2022-12-18T04:45:52;23.13;;;11.67;;
15946;SDS011;8072;52.554;7.966;2022-12-18T04:48:17;22.73;;;11.63;;
15946;SDS011;8072;52.554;7.966;2022-12-18T04:50:46;17.20;;;10.53;;
15946;SDS011;8072;52.554;7.966;2022-12-18T04:53:12;24.27;;;10.90;;
15946;SDS011;8072;52.554;7.966;2022-12-18T04:55:38;22.83;;;10.40;;
15946;SDS011;8072;52.554;7.966;2022-12-18T04:58:04;16.10;;;9.93;;
15946;SDS011;8072;52.554;7.966;2022-12-18T05:00:31;18.40;;;10.07;;
15946;SDS011;8072;52.554;7.966;2022-12-18T05:02:56;20.00;;;10.30;;
15946;SDS011;8072;52.554;7.966;2022-12-18T05:05:25;25.13;;;10.90;;
15946;SDS011;8072;52.554;7.966;2022-12-18T05:07:52;19.10;;;9.70;;
15946;SDS011;8072;52.554;7.966;2022-12-18T05:10:19;20.00;;;9.57;;
15946;SDS011;8072;52.554;7.966;2022-12-18T05:12:45;21.53;;;9.70;;
15946;SDS011;8072;52.554;7.966;2022-12-18T05:15:27;20.53;;;10.63;;
15946;SDS011;8072;52.554;7.966;2022-12-18T05:17:57;20.83;;;10.50;;
15946;SDS011;8072;52.554;7.966;2022-12-18T05:20:24;20.93;;;10.27;;
15946;SDS011;8072;52.554;7.966;2022-12-18T05:22:50;18.27;;;9.63;;
15946;SDS011;8072;52.554;7.966;2022-12-18T05:25:17;22.67;;;11.47;;
15946;SDS011;8072;52.554;7.966;2022-12-18T05:27:43;18.67;;;10.63;;
15946;SDS011;8072;52.554;7.966;2022-12-18T05:30:10;18.20;;;9.63;;
15946;SDS011;8072;52.554;7.966;2022-12-18T05:32:38;20.30;;;10.43;;
15946;SDS011;8072;52.554;7.966;2022-12-18T05:35:05;19.70;;;10.00;;
15946;SDS011;8072;52.554;7.966;2022-12-18T05:37:32;19.77;;;10.57;;
15946;SDS011;8072;52.554;7.966;2022-12-18T05:39:59;22.03;;;10.67;;
15946;SDS011;8072;52.554;7.966;2022-12-18T05:42:24;17.97;;;10.03;;
15946;SDS011;8072;52.554;7.966;2022-12-18T05:44:50;19.87;;;10.13;;
15946;SDS011;8072;52.554;7.966;2022-12-18T05:47:17;24.17;;;10.73;;
15946;SDS011;8072;52.554;7.966;2022-12-18T05:49:43;18.97;;;9.93;;
15946;SDS011;8072;52.554;7.966;2022-12-18T05:52:09;21.30;;;11.40;;
15946;SDS011;8072;52.554;7.966;2022-12-18T05:54:34;18.07;;;10.33;;
15946;SDS011;8072;52.554;7.966;2022-12-18T05:57:00;21.10;;;10.90;;
15946;SDS011;8072;52.554;7.966;2022-12-18T05:59:26;17.47;;;9.13;;
15946;SDS011;8072;52.554;7.966;2022-12-18T06:01:52;17.80;;;9.83;;
15946;SDS011;8072;52.554;7.966;2022-12-18T06:04:17;20.30;;;9.83;;
15946;SDS011;8072;52.554;7.966;2022-12-18T06:06:43;19.00;;;10.17;;
15946;SDS011;8072;52.554;7.966;2022-12-18T06:09:09;20.43;;;8.97;;
15946;SDS011;8072;52.554;7.966;2022-12-18T06:11:35;17.47;;;9.07;;
15946;SDS011;8072;52.554;7.966;2022-12-18T06:14:02;17.13;;;9.53;;
15946;SDS011;8072;52.554;7.966;2022-12-18T06:16:30;14.90;;;8.67;;
15946;SDS011;8072;52.554;7.966;2022-12-18T06:19:00;17.30;;;9.47;;
15946;SDS011;8072;52.554;7.966;2022-12-18T06:21:27;14.37;;;8.93;;
15946;SDS011;8072;52.554;7.966;2022-12-18T06:23:53;18.73;;;9.90;;
15946;SDS011;8072;52.554;7.966;2022-12-18T06:26:19;16.27;;;8.53;;
15946;SDS011;8072;52.554;7.966;2022-12-18T06:28:45;16.27;;;9.07;;
15946;SDS011;8072;52.554;7.966;2022-12-18T06:31:11;18.83;;;9.27;;
15946;SDS011;8072;52.554;7.966;2022-12-18T06:33:37;18.80;;;9.33;;
15946;SDS011;8072;52.554;7.966;2022-12-18T06:36:05;18.03;;;8.37;;
15946;SDS011;8072;52.554;7.966;2022-12-18T06:38:33;17.50;;;8.97;;
15946;SDS011;8072;52.554;7.966;2022-12-18T06:41:00;17.80;;;9.10;;
15946;SDS011;8072;52.554;7.966;2022-12-18T06:43:31;14.67;;;7.80;;
15946;SDS011;8072;52.554;7.966;2022-12-18T06:46:00;17.20;;;8.80;;
15946;SDS011;8072;52.554;7.966;2022-12-18T06:48:26;16.93;;;9.23;;
15946;SDS011;8072;52.554;7.966;2022-12-18T06:50:52;21.40;;;9.00;;
15946;SDS011;8072;52.554;7.966;2022-12-18T06:53:19;13.37;;;8.23;;
15946;SDS011;8072;52.554;7.966;2022-12-18T06:55:45;17.17;;;8.90;;
15946;SDS011;8072;52.554;7.966;2022-12-18T06:58:11;14.40;;;8.97;;
15946;SDS011;8072;52.554;7.966;2022-12-18T07:00:37;17.27;;;8.87;;
15946;SDS011;8072;52.554;7.966;2022-12-18T07:03:03;16.77;;;8.73;;
15946;SDS011;8072;52.554;7.966;2022-12-18T07:05:28;18.13;;;9.87;;
15946;SDS011;8072;52.554;7.966;2022-12-18T07:07:54;18.33;;;9.60;;
15946;SDS011;8072;52.554;7.966;2022-12-18T07:10:21;18.43;;;9.10;;
15946;SDS011;8072;52.554;7.966;2022-12-18T07:12:47;21.23;;;9.00;;
15946;SDS011;8072;52.554;7.966;2022-12-18T07:15:13;14.47;;;9.63;;
15946;SDS011;8072;52.554;7.966;2022-12-18T07:17:39;11.50;;;8.50;;
15946;SDS011;8072;52.554;7.966;2022-12-18T07:20:04;17.07;;;8.83;;
15946;SDS011;8072;52.554;7.966;2022-12-18T07:22:31;16.40;;;9.03;;
15946;SDS011;8072;52.554;7.966;2022-12-18T07:24:56;19.43;;;9.57;;
15946;SDS011;8072;52.554;7.966;2022-12-18T07:27:22;21.83;;;8.80;;
15946;SDS011;8072;52.554;7.966;2022-12-18T07:29:48;19.13;;;9.70;;
15946;SDS011;8072;52.554;7.966;2022-12-18T07:32:14;16.67;;;8.73;;
15946;SDS011;8072;52.554;7.966;2022-12-18T07:34:40;15.83;;;9.87;;
15946;SDS011;8072;52.554;7.966;2022-12-18T07:37:05;14.73;;;8.80;;
15946;SDS011;8072;52.554;7.966;2022-12-18T07:39:31;25.07;;;9.57;;
15946;SDS011;8072;52.554;7.966;2022-12-18T07:41:57;18.33;;;9.07;;
15946;SDS011;8072;52.554;7.966;2022-12-18T07:44:41;17.07;;;9.83;;
15946;SDS011;8072;52.554;7.966;2022-12-18T07:47:07;14.87;;;8.50;;
15946;SDS011;8072;52.554;7.966;2022-12-18T07:49:33;18.63;;;10.23;;
15946;SDS011;8072;52.554;7.966;2022-12-18T07:51:59;18.77;;;9.73;;
15946;SDS011;8072;52.554;7.966;2022-12-18T07:54:25;18.13;;;9.03;;
15946;SDS011;8072;52.554;7.966;2022-12-18T07:56:51;15.77;;;8.63;;
15946;SDS011;8072;52.554;7.966;2022-12-18T07:59:17;16.60;;;8.53;;
15946;SDS011;8072;52.554;7.966;2022-12-18T08:01:43;16.40;;;9.60;;
15946;SDS011;8072;52.554;7.966;2022-12-18T08:04:10;17.07;;;9.03;;
15946;SDS011;8072;52.554;7.966;2022-12-18T08:06:35;18.90;;;9.57;;
15946;SDS011;8072;52.554;7.966;2022-12-18T08:09:02;16.43;;;9.43;;
15946;SDS011;8072;52.554;7.966;2022-12-18T08:11:28;17.50;;;10.57;;
15946;SDS011;8072;52.554;7.966;2022-12-18T08:13:54;19.20;;;10.30;;
15946;SDS011;8072;52.554;7.966;2022-12-18T08:16:20;17.23;;;8.93;;
15946;SDS011;8072;52.554;7.966;2022-12-18T08:18:47;16.07;;;9.93;;
15946;SDS011;8072;52.554;7.966;2022-12-18T08:21:14;17.47;;;8.93;;
15946;SDS011;8072;52.554;7.966;2022-12-18T08:23:41;17.73;;;10.03;;
15946;SDS011;8072;52.554;7.966;2022-12-18T08:26:07;19.73;;;9.63;;
15946;SDS011;8072;52.554;7.966;2022-12-18T08:28:33;17.27;;;8.70;;
15946;SDS011;8072;52.554;7.966;2022-12-18T08:30:59;18.83;;;10.00;;
15946;SDS011;8072;52.554;7.966;2022-12-18T08:33:25;19.60;;;9.93;;
15946;SDS011;8072;52.554;7.966;2022-12-18T08:35:52;18.17;;;10.13;;
15946;SDS011;8072;52.554;7.966;2022-12-18T08:38:18;15.67;;;9.67;;
15946;SDS011;8072;52.554;7.966;2022-12-18T08:40:43;18.87;;;9.90;;
15946;SDS011;8072;52.554;7.966;2022-12-18T08:43:09;18.53;;;9.40;;
15946;SDS011;8072;52.554;7.966;2022-12-18T08:45:55;18.97;;;8.93;;
15946;SDS011;8072;52.554;7.966;2022-12-18T08:48:21;17.77;;;8.83;;
15946;SDS011;8072;52.554;7.966;2022-12-18T08:50:53;15.27;;;8.70;;
15946;SDS011;8072;52.554;7.966;2022-12-18T08:53:20;19.13;;;9.60;;
15946;SDS011;8072;52.554;7.966;2022-12-18T08:55:45;17.90;;;9.30;;
15946;SDS011;8072;52.554;7.966;2022-12-18T08:58:11;16.50;;;9.57;;
15946;SDS011;8072;52.554;7.966;2022-12-18T09:00:37;19.17;;;9.83;;
15946;SDS011;8072;52.554;7.966;2022-12-18T09:03:03;20.43;;;10.57;;
15946;SDS011;8072;52.554;7.966;2022-12-18T09:05:29;22.90;;;9.80;;
15946;SDS011;8072;52.554;7.966;2022-12-18T09:07:56;20.27;;;9.60;;
15946;SDS011;8072;52.554;7.966;2022-12-18T09:10:22;18.33;;;10.57;;
15946;SDS011;8072;52.554;7.966;2022-12-18T09:12:47;19.07;;;10.83;;
15946;SDS011;8072;52.554;7.966;2022-12-18T09:15:13;19.10;;;9.97;;
15946;SDS011;8072;52.554;7.966;2022-12-18T09:17:39;22.10;;;11.07;;
15946;SDS011;8072;52.554;7.966;2022-12-18T09:20:05;18.37;;;10.17;;
15946;SDS011;8072;52.554;7.966;2022-12-18T09:22:31;18.63;;;9.97;;
15946;SDS011;8072;52.554;7.966;2022-12-18T09:24:57;19.90;;;9.80;;
15946;SDS011;8072;52.554;7.966;2022-12-18T09:27:23;21.73;;;10.83;;
15946;SDS011;8072;52.554;7.966;2022-12-18T09:29:49;20.77;;;10.53;;
15946;SDS011;8072;52.554;7.966;2022-12-18T09:32:14;21.17;;;10.90;;
15946;SDS011;8072;52.554;7.966;2022-12-18T09:34:40;22.77;;;10.13;;
15946;SDS011;8072;52.554;7.966;2022-12-18T09:37:06;16.77;;;9.43;;
15946;SDS011;8072;52.554;7.966;2022-12-18T09:39:32;17.13;;;9.33;;
15946;SDS011;8072;52.554;7.966;2022-12-18T09:41:58;19.67;;;10.70;;
15946;SDS011;8072;52.554;7.966;2022-12-18T09:44:25;21.27;;;9.77;;
15946;SDS011;8072;52.554;7.966;2022-12-18T09:47:02;17.50;;;9.70;;
15946;SDS011;8072;52.554;7.966;2022-12-18T09:49:43;17.50;;;9.43;;
15946;SDS011;8072;52.554;7.966;2022-12-18T09:52:13;22.50;;;10.67;;
15946;SDS011;8072;52.554;7.966;2022-12-18T09:54:49;19.33;;;10.63;;
15946;SDS011;8072;52.554;7.966;2022-12-18T09:57:20;17.93;;;10.10;;
15946;SDS011;8072;52.554;7.966;2022-12-18T10:00:33;24.40;;;11.20;;
15946;SDS011;8072;52.554;7.966;2022-12-18T10:02:34;18.80;;;10.40;;
15946;SDS011;8072;52.554;7.966;2022-12-18T10:07:37;19.57;;;9.87;;
15946;SDS011;8072;52.554;7.966;2022-12-18T10:10:54;19.37;;;10.13;;
15946;SDS011;8072;52.554;7.966;2022-12-18T10:16:08;17.17;;;9.70;;
15946;SDS011;8072;52.554;7.966;2022-12-18T10:21:28;16.87;;;9.27;;
15946;SDS011;8072;52.554;7.966;2022-12-18T10:24:17;19.57;;;9.97;;
15946;SDS011;8072;52.554;7.966;2022-12-18T10:26:49;17.53;;;9.20;;
15946;SDS011;8072;52.554;7.966;2022-12-18T10:29:16;18.83;;;9.77;;
15946;SDS011;8072;52.554;7.966;2022-12-18T10:31:43;19.43;;;9.70;;
15946;SDS011;8072;52.554;7.966;2022-12-18T10:34:12;16.67;;;8.80;;
15946;SDS011;8072;52.554;7.966;2022-12-18T10:36:39;17.90;;;9.53;;
15946;SDS011;8072;52.554;7.966;2022-12-18T10:39:15;17.47;;;9.83;;
15946;SDS011;8072;52.554;7.966;2022-12-18T10:41:48;15.53;;;9.10;;
15946;SDS011;8072;52.554;7.966;2022-12-18T10:46:51;16.43;;;9.80;;
15946;SDS011;8072;52.554;7.966;2022-12-18T10:49:27;19.70;;;9.87;;
15946;SDS011;8072;52.554;7.966;2022-12-18T10:52:05;17.50;;;9.50;;
15946;SDS011;8072;52.554;7.966;2022-12-18T10:55:01;15.80;;;9.73;;
15946;SDS011;8072;52.554;7.966;2022-12-18T10:57:30;18.20;;;9.60;;
15946;SDS011;8072;52.554;7.966;2022-12-18T11:00:46;13.87;;;9.07;;
15946;SDS011;8072;52.554;7.966;2022-12-18T11:02:56;16.47;;;9.00;;
15946;SDS011;8072;52.554;7.966;2022-12-18T11:05:34;17.13;;;8.67;;
15946;SDS011;8072;52.554;7.966;2022-12-18T11:08:02;15.70;;;8.93;;
15946;SDS011;8072;52.554;7.966;2022-12-18T11:10:32;15.50;;;9.33;;
15946;SDS011;8072;52.554;7.966;2022-12-18T11:13:23;19.90;;;8.90;;
15946;SDS011;8072;52.554;7.966;2022-12-18T11:15:51;14.40;;;7.80;;
15946;SDS011;8072;52.554;7.966;2022-12-18T11:18:32;16.43;;;8.90;;
15946;SDS011;8072;52.554;7.966;2022-12-18T11:21:09;14.63;;;8.83;;
15946;SDS011;8072;52.554;7.966;2022-12-18T11:23:49;19.07;;;8.90;;
15946;SDS011;8072;52.554;7.966;2022-12-18T11:26:16;17.00;;;8.03;;
15946;SDS011;8072;52.554;7.966;2022-12-18T11:33:59;17.63;;;8.20;;
15946;SDS011;8072;52.554;7.966;2022-12-18T11:36:36;15.57;;;8.87;;
15946;SDS011;8072;52.554;7.966;2022-12-18T11:39:13;14.90;;;8.60;;
15946;SDS011;8072;52.554;7.966;2022-12-18T11:41:54;16.37;;;8.50;;
15946;SDS011;8072;52.554;7.966;2022-12-18T11:44:36;13.63;;;7.97;;
15946;SDS011;8072;52.554;7.966;2022-12-18T11:50:20;15.67;;;8.33;;
15946;SDS011;8072;52.554;7.966;2022-12-18T11:52:49;13.87;;;8.03;;
15946;SDS011;8072;52.554;7.966;2022-12-18T11:55:27;19.23;;;8.53;;
15946;SDS011;8072;52.554;7.966;2022-12-18T11:57:59;14.83;;;8.23;;
15946;SDS011;8072;52.554;7.966;2022-12-18T12:00:35;15.10;;;7.87;;
15946;SDS011;8072;52.554;7.966;2022-12-18T12:14:15;13.30;;;8.17;;
15946;SDS011;8072;52.554;7.966;2022-12-18T12:38:37;14.03;;;8.13;;
15946;SDS011;8072;52.554;7.966;2022-12-18T12:41:12;14.90;;;8.50;;
15946;SDS011;8072;52.554;7.966;2022-12-18T12:44:00;14.77;;;8.10;;
15946;SDS011;8072;52.554;7.966;2022-12-18T12:46:29;12.27;;;8.33;;
15946;SDS011;8072;52.554;7.966;2022-12-18T12:49:00;13.63;;;8.00;;
15946;SDS011;8072;52.554;7.966;2022-12-18T12:51:33;15.10;;;7.97;;
15946;SDS011;8072;52.554;7.966;2022-12-18T12:54:02;14.77;;;7.90;;
15946;SDS011;8072;52.554;7.966;2022-12-18T12:59:19;15.23;;;7.70;;
15946;SDS011;8072;52.554;7.966;2022-12-18T13:04:52;10.43;;;7.07;;
15946;SDS011;8072;52.554;7.966;2022-12-18T13:07:40;13.37;;;7.73;;
15946;SDS011;8072;52.554;7.966;2022-12-18T13:10:12;13.00;;;7.20;;
15946;SDS011;8072;52.554;7.966;2022-12-18T13:15:21;10.63;;;6.90;;
15946;SDS011;8072;52.554;7.966;2022-12-18T13:17:47;14.93;;;7.17;;
15946;SDS011;8072;52.554;7.966;2022-12-18T13:20:14;12.67;;;7.37;;
15946;SDS011;8072;52.554;7.966;2022-12-18T13:22:44;10.80;;;7.03;;
15946;SDS011;8072;52.554;7.966;2022-12-18T13:41:24;11.93;;;6.10;;
15946;SDS011;8072;52.554;7.966;2022-12-18T13:43:51;9.23;;;5.83;;
15946;SDS011;8072;52.554;7.966;2022-12-18T13:46:29;9.47;;;5.97;;
15946;SDS011;8072;52.554;7.966;2022-12-18T13:51:40;11.43;;;6.37;;
15946;SDS011;8072;52.554;7.966;2022-12-18T13:56:44;10.67;;;6.17;;
15946;SDS011;8072;52.554;7.966;2022-12-18T13:59:17;11.23;;;6.17;;
15946;SDS011;8072;52.554;7.966;2022-12-18T14:01:54;9.33;;;5.40;;
15946;SDS011;8072;52.554;7.966;2022-12-18T14:06:49;10.63;;;6.20;;
15946;SDS011;8072;52.554;7.966;2022-12-18T14:09:42;8.00;;;5.80;;
15946;SDS011;8072;52.554;7.966;2022-12-18T14:12:18;10.17;;;5.87;;
15946;SDS011;8072;52.554;7.966;2022-12-18T14:15:09;11.43;;;5.50;;
15946;SDS011;8072;52.554;7.966;2022-12-18T14:20:40;9.77;;;5.37;;
15946;SDS011;8072;52.554;7.966;2022-12-18T14:26:20;8.57;;;5.50;;
15946;SDS011;8072;52.554;7.966;2022-12-18T14:28:46;8.63;;;5.50;;
15946;SDS011;8072;52.554;7.966;2022-12-18T14:31:19;11.23;;;6.30;;
15946;SDS011;8072;52.554;7.966;2022-12-18T14:33:45;12.00;;;8.43;;
15946;SDS011;8072;52.554;7.966;2022-12-18T14:36:13;16.80;;;8.53;;
15946;SDS011;8072;52.554;7.966;2022-12-18T14:38:52;11.90;;;6.30;;
15946;SDS011;8072;52.554;7.966;2022-12-18T14:41:22;11.87;;;6.67;;
15946;SDS011;8072;52.554;7.966;2022-12-18T14:43:50;16.40;;;8.13;;
15946;SDS011;8072;52.554;7.966;2022-12-18T14:46:36;22.57;;;9.77;;
15946;SDS011;8072;52.554;7.966;2022-12-18T14:51:54;15.57;;;8.83;;
15946;SDS011;8072;52.554;7.966;2022-12-18T14:54:25;15.23;;;9.17;;
15946;SDS011;8072;52.554;7.966;2022-12-18T14:59:29;9.10;;;5.87;;
15946;SDS011;8072;52.554;7.966;2022-12-18T15:05:00;9.27;;;5.40;;
15946;SDS011;8072;52.554;7.966;2022-12-18T15:07:49;6.47;;;4.57;;
15946;SDS011;8072;52.554;7.966;2022-12-18T15:18:05;8.77;;;5.10;;
15946;SDS011;8072;52.554;7.966;2022-12-18T15:23:16;6.40;;;4.80;;
15946;SDS011;8072;52.554;7.966;2022-12-18T15:25:45;6.17;;;4.97;;
15946;SDS011;8072;52.554;7.966;2022-12-18T15:28:55;8.13;;;5.47;;
15946;SDS011;8072;52.554;7.966;2022-12-18T15:33:36;8.23;;;5.27;;
15946;SDS011;8072;52.554;7.966;2022-12-18T15:36:14;11.80;;;5.20;;
15946;SDS011;8072;52.554;7.966;2022-12-18T15:38:41;10.07;;;5.67;;
15946;SDS011;8072;52.554;7.966;2022-12-18T15:41:13;6.60;;;4.93;;
15946;SDS011;8072;52.554;7.966;2022-12-18T15:43:43;9.33;;;4.97;;
15946;SDS011;8072;52.554;7.966;2022-12-18T15:46:14;9.27;;;5.63;;
15946;SDS011;8072;52.554;7.966;2022-12-18T15:48:48;12.63;;;6.10;;
15946;SDS011;8072;52.554;7.966;2022-12-18T15:53:53;8.30;;;5.50;;
15946;SDS011;8072;52.554;7.966;2022-12-18T15:56:21;8.80;;;5.57;;
15946;SDS011;8072;52.554;7.966;2022-12-18T15:59:12;8.70;;;5.27;;
15946;SDS011;8072;52.554;7.966;2022-12-18T16:01:51;8.50;;;5.33;;
15946;SDS011;8072;52.554;7.966;2022-12-18T16:04:20;7.93;;;6.07;;
15946;SDS011;8072;52.554;7.966;2022-12-18T16:06:47;14.90;;;6.73;;
15946;SDS011;8072;52.554;7.966;2022-12-18T16:09:13;11.73;;;6.03;;
15946;SDS011;8072;52.554;7.966;2022-12-18T16:11:40;8.60;;;5.40;;
15946;SDS011;8072;52.554;7.966;2022-12-18T16:16:40;8.63;;;5.33;;
15946;SDS011;8072;52.554;7.966;2022-12-18T16:19:06;10.23;;;5.30;;
15946;SDS011;8072;52.554;7.966;2022-12-18T16:21:32;10.23;;;5.70;;
15946;SDS011;8072;52.554;7.966;2022-12-18T16:23:58;9.17;;;5.37;;
15946;SDS011;8072;52.554;7.966;2022-12-18T16:26:24;7.77;;;5.63;;
15946;SDS011;8072;52.554;7.966;2022-12-18T16:28:49;9.27;;;5.33;;
15946;SDS011;8072;52.554;7.966;2022-12-18T16:31:15;7.57;;;5.53;;
15946;SDS011;8072;52.554;7.966;2022-12-18T16:33:41;12.73;;;6.67;;
15946;SDS011;8072;52.554;7.966;2022-12-18T16:36:07;6.20;;;5.17;;
15946;SDS011;8072;52.554;7.966;2022-12-18T16:38:33;7.30;;;5.10;;
15946;SDS011;8072;52.554;7.966;2022-12-18T16:40:58;11.17;;;5.73;;
15946;SDS011;8072;52.554;7.966;2022-12-18T16:43:43;9.20;;;5.70;;
15946;SDS011;8072;52.554;7.966;2022-12-18T16:46:08;7.87;;;5.23;;
15946;SDS011;8072;52.554;7.966;2022-12-18T16:48:34;8.73;;;5.93;;
15946;SDS011;8072;52.554;7.966;2022-12-18T16:51:01;9.47;;;5.70;;
15946;SDS011;8072;52.554;7.966;2022-12-18T16:53:28;10.57;;;5.30;;
15946;SDS011;8072;52.554;7.966;2022-12-18T16:55:54;8.50;;;5.37;;
15946;SDS011;8072;52.554;7.966;2022-12-18T16:58:20;8.93;;;5.70;;
15946;SDS011;8072;52.554;7.966;2022-12-18T17:00:46;9.83;;;5.73;;
15946;SDS011;8072;52.554;7.966;2022-12-18T17:03:12;8.77;;;5.17;;
15946;SDS011;8072;52.554;7.966;2022-12-18T17:05:38;8.67;;;5.70;;
15946;SDS011;8072;52.554;7.966;2022-12-18T17:08:04;12.80;;;5.43;;
15946;SDS011;8072;52.554;7.966;2022-12-18T17:10:30;10.33;;;5.53;;
15946;SDS011;8072;52.554;7.966;2022-12-18T17:12:55;10.63;;;5.97;;
15946;SDS011;8072;52.554;7.966;2022-12-18T17:15:21;9.50;;;6.10;;
15946;SDS011;8072;52.554;7.966;2022-12-18T17:17:47;7.80;;;5.63;;
15946;SDS011;8072;52.554;7.966;2022-12-18T17:20:13;8.43;;;5.73;;
15946;SDS011;8072;52.554;7.966;2022-12-18T17:22:38;8.73;;;5.50;;
15946;SDS011;8072;52.554;7.966;2022-12-18T17:25:04;9.60;;;5.67;;
15946;SDS011;8072;52.554;7.966;2022-12-18T17:27:30;9.23;;;5.87;;